Time;durP1;ratioP1;P1;durP2;ratioP2;P2;SDS_P1;SDS_P2;PMS_P1;PMS_P2;Temp;Humidity;BMP_temperature;BMP_pressure;BME280_temperature;BME280_humidity;BME280_pressure;Samples;Min_cycle;Max_cycle;Signal;HPM_P1;HPM_P2
2022/12/10 00:01:35;;;;;;;25.27;18.90;;;;;;;;;;5046260;28;20430;-71
2022/12/10 00:04:01;;;;;;;28.13;20.47;;;;;;;;;;5045010;28;20442;-71
2022/12/10 00:06:28;;;;;;;28.73;19.50;;;;;;;;;;5046705;28;20206;-71
2022/12/10 00:08:53;;;;;;;27.37;19.63;;;;;;;;;;5044843;28;20233;-72
2022/12/10 00:11:21;;;;;;;25.77;19.37;;;;;;;;;;5046816;28;20981;-71
2022/12/10 00:13:46;;;;;;;24.63;18.20;;;;;;;;;;5046055;28;20659;-71
2022/12/10 00:16:13;;;;;;;27.70;19.53;;;;;;;;;;5042230;28;20450;-71
2022/12/10 00:18:38;;;;;;;27.83;20.30;;;;;;;;;;5044751;28;20421;-71
2022/12/10 00:21:05;;;;;;;26.97;19.37;;;;;;;;;;5043449;28;20434;-72
2022/12/10 00:23:32;;;;;;;31.43;19.60;;;;;;;;;;5048123;28;20219;-71
2022/12/10 00:26:04;;;;;;;27.53;19.57;;;;;;;;;;5047388;28;20438;-72
2022/12/10 00:28:29;;;;;;;29.67;19.27;;;;;;;;;;5047505;28;20422;-71
2022/12/10 00:30:55;;;;;;;26.13;20.70;;;;;;;;;;5042957;28;21125;-71
2022/12/10 00:33:20;;;;;;;25.10;19.27;;;;;;;;;;5043020;28;20328;-71
2022/12/10 00:35:45;;;;;;;26.50;21.00;;;;;;;;;;5030557;28;20195;-71
2022/12/10 00:38:13;;;;;;;25.53;19.70;;;;;;;;;;5041506;28;20203;-71
2022/12/10 00:40:38;;;;;;;32.00;20.53;;;;;;;;;;5046278;28;20168;-71
2022/12/10 00:43:07;;;;;;;31.73;20.37;;;;;;;;;;5027152;28;20561;-71
2022/12/10 00:45:32;;;;;;;29.57;20.70;;;;;;;;;;5023060;28;20180;-71
2022/12/10 00:47:57;;;;;;;28.20;20.50;;;;;;;;;;5049852;28;20461;-72
2022/12/10 00:50:22;;;;;;;27.60;20.37;;;;;;;;;;5049409;28;20566;-71
2022/12/10 00:52:48;;;;;;;26.13;20.80;;;;;;;;;;5050059;28;20168;-71
2022/12/10 00:55:13;;;;;;;26.67;21.50;;;;;;;;;;5050219;28;20178;-71
2022/12/10 00:57:38;;;;;;;30.53;21.90;;;;;;;;;;5050974;28;20691;-71
2022/12/10 01:00:04;;;;;;;27.37;19.53;;;;;;;;;;5049534;28;20186;-72
2022/12/10 01:02:29;;;;;;;25.90;19.70;;;;;;;;;;5047627;28;20194;-71
2022/12/10 01:04:54;;;;;;;27.40;23.30;;;;;;;;;;5050514;28;20172;-71
2022/12/10 01:07:19;;;;;;;26.80;20.10;;;;;;;;;;5050056;28;20246;-71
2022/12/10 01:09:45;;;;;;;25.20;20.33;;;;;;;;;;5047459;28;20445;-71
2022/12/10 01:12:10;;;;;;;29.30;22.27;;;;;;;;;;5044975;28;20179;-71
2022/12/10 01:14:36;;;;;;;25.53;18.77;;;;;;;;;;5047046;28;20224;-71
2022/12/10 01:17:04;;;;;;;26.63;21.13;;;;;;;;;;5043787;28;20646;-71
2022/12/10 01:19:30;;;;;;;25.17;19.80;;;;;;;;;;5046111;28;20762;-72
2022/12/10 01:21:56;;;;;;;28.23;21.77;;;;;;;;;;5046144;28;21035;-71
2022/12/10 01:24:26;;;;;;;28.40;21.07;;;;;;;;;;5047984;28;20468;-72
2022/12/10 01:26:52;;;;;;;29.20;20.50;;;;;;;;;;5042937;28;20231;-71
2022/12/10 01:29:18;;;;;;;26.37;21.40;;;;;;;;;;5044611;28;20453;-71
2022/12/10 01:31:43;;;;;;;28.73;19.80;;;;;;;;;;5043522;28;20622;-71
2022/12/10 01:34:12;;;;;;;29.07;21.90;;;;;;;;;;5043098;28;20179;-72
2022/12/10 01:36:41;;;;;;;30.40;21.60;;;;;;;;;;5045113;28;20679;-71
2022/12/10 01:39:07;;;;;;;28.33;21.27;;;;;;;;;;5039864;28;20461;-71
2022/12/10 01:41:37;;;;;;;29.90;20.83;;;;;;;;;;5042612;28;20437;-71
2022/12/10 01:44:05;;;;;;;28.07;21.97;;;;;;;;;;5044747;28;20429;-71
2022/12/10 01:46:32;;;;;;;29.83;21.90;;;;;;;;;;5038921;28;20965;-71
2022/12/10 01:48:58;;;;;;;26.03;20.57;;;;;;;;;;5041775;28;20433;-71
2022/12/10 01:51:24;;;;;;;26.53;21.27;;;;;;;;;;5044725;28;20832;-71
2022/12/10 01:53:49;;;;;;;27.70;20.30;;;;;;;;;;5044532;28;20423;-71
2022/12/10 01:56:16;;;;;;;29.37;21.13;;;;;;;;;;5042426;28;20913;-71
2022/12/10 01:58:41;;;;;;;25.90;20.60;;;;;;;;;;5043617;28;20199;-71
2022/12/10 02:01:09;;;;;;;32.07;21.77;;;;;;;;;;5041376;28;20923;-71
2022/12/10 02:03:48;;;;;;;28.23;22.60;;;;;;;;;;5041395;28;20254;-71
2022/12/10 02:06:13;;;;;;;27.87;20.73;;;;;;;;;;5039574;28;20611;-71
2022/12/10 02:08:46;;;;;;;28.83;22.10;;;;;;;;;;5041306;28;20529;-71
2022/12/10 02:11:16;;;;;;;27.47;21.20;;;;;;;;;;5044479;28;20614;-71
2022/12/10 02:13:59;;;;;;;33.20;23.97;;;;;;;;;;5041362;28;20517;-71
2022/12/10 02:16:40;;;;;;;29.63;22.00;;;;;;;;;;5043604;28;20478;-72
2022/12/10 02:19:23;;;;;;;29.03;21.27;;;;;;;;;;5043021;28;20575;-71
2022/12/10 02:21:50;;;;;;;33.50;23.40;;;;;;;;;;5042214;28;20471;-71
2022/12/10 02:24:18;;;;;;;31.30;23.87;;;;;;;;;;5044310;28;20433;-71
2022/12/10 02:26:46;;;;;;;32.97;24.07;;;;;;;;;;5046260;28;20442;-71
2022/12/10 02:29:15;;;;;;;29.27;22.70;;;;;;;;;;5049805;28;20509;-71
2022/12/10 02:31:43;;;;;;;33.13;24.23;;;;;;;;;;5050200;28;20465;-71
2022/12/10 02:34:10;;;;;;;38.10;22.93;;;;;;;;;;5048106;28;20410;-72
2022/12/10 02:36:37;;;;;;;35.67;25.17;;;;;;;;;;5052989;28;20479;-72
2022/12/10 02:39:04;;;;;;;36.03;26.30;;;;;;;;;;5032052;28;20490;-71
2022/12/10 02:41:34;;;;;;;35.07;24.90;;;;;;;;;;5031747;28;20442;-71
2022/12/10 02:44:02;;;;;;;35.23;24.27;;;;;;;;;;5052177;28;20413;-71
2022/12/10 02:46:30;;;;;;;35.27;26.10;;;;;;;;;;5048247;28;20437;-72
2022/12/10 02:48:57;;;;;;;32.47;23.50;;;;;;;;;;5050775;28;20510;-71
2022/12/10 02:51:23;;;;;;;33.23;25.00;;;;;;;;;;5051173;28;20458;-72
2022/12/10 02:53:58;;;;;;;35.77;24.47;;;;;;;;;;5048891;28;20467;-72
2022/12/10 02:56:27;;;;;;;33.27;24.97;;;;;;;;;;5046625;28;20206;-71
2022/12/10 02:58:58;;;;;;;36.70;25.53;;;;;;;;;;5046672;28;20509;-71
2022/12/10 03:01:44;;;;;;;36.10;25.40;;;;;;;;;;5049605;28;20479;-71
2022/12/10 03:04:14;;;;;;;38.53;24.80;;;;;;;;;;5049785;28;20509;-72
2022/12/10 03:06:43;;;;;;;35.23;25.57;;;;;;;;;;5047786;28;20553;-72
2022/12/10 03:09:12;;;;;;;35.75;27.52;;;;;;;;;;5027469;28;20795;-72
2022/12/10 03:11:39;;;;;;;37.33;25.77;;;;;;;;;;5048637;28;20457;-71
2022/12/10 03:14:16;;;;;;;35.00;26.23;;;;;;;;;;5028907;28;20510;-72
2022/12/10 03:16:43;;;;;;;36.23;25.87;;;;;;;;;;5048606;28;20450;-72
2022/12/10 03:19:15;;;;;;;33.80;24.87;;;;;;;;;;5046214;28;20426;-72
2022/12/10 03:21:41;;;;;;;32.63;24.47;;;;;;;;;;5047238;28;20509;-72
2022/12/10 03:24:07;;;;;;;32.10;24.03;;;;;;;;;;5050555;28;20493;-71
2022/12/10 03:26:33;;;;;;;37.50;24.70;;;;;;;;;;5048458;28;20223;-72
2022/12/10 03:29:21;;;;;;;35.60;26.37;;;;;;;;;;5046698;28;20465;-72
2022/12/10 03:31:46;;;;;;;32.17;24.30;;;;;;;;;;5012001;28;20634;-72
2022/12/10 03:34:13;;;;;;;34.73;25.00;;;;;;;;;;5046037;28;20513;-72
2022/12/10 03:36:38;;;;;;;38.77;24.30;;;;;;;;;;5031001;28;20762;-72
2022/12/10 03:39:04;;;;;;;31.97;24.13;;;;;;;;;;5048300;28;20438;-72
2022/12/10 03:41:30;;;;;;;34.50;24.93;;;;;;;;;;5047008;28;20458;-72
2022/12/10 03:43:56;;;;;;;32.30;24.63;;;;;;;;;;5048600;28;20896;-72
2022/12/10 03:46:26;;;;;;;32.13;23.50;;;;;;;;;;5046859;28;20547;-72
2022/12/10 03:48:52;;;;;;;35.20;26.20;;;;;;;;;;5030925;28;20430;-72
2022/12/10 03:51:17;;;;;;;33.50;25.73;;;;;;;;;;5049424;28;20457;-71
2022/12/10 03:53:42;;;;;;;37.20;26.10;;;;;;;;;;5049790;28;20921;-72
2022/12/10 03:56:08;;;;;;;34.53;25.33;;;;;;;;;;5032381;28;20180;-72
2022/12/10 03:58:33;;;;;;;41.73;28.17;;;;;;;;;;5048710;28;20180;-72
2022/12/10 04:00:58;;;;;;;36.77;25.90;;;;;;;;;;5045447;28;20190;-72
2022/12/10 04:03:24;;;;;;;35.83;26.20;;;;;;;;;;5046366;28;20675;-72
2022/12/10 04:05:49;;;;;;;34.57;25.20;;;;;;;;;;5046767;28;20184;-72
2022/12/10 04:08:14;;;;;;;35.63;26.17;;;;;;;;;;5047298;28;20222;-72
2022/12/10 04:10:40;;;;;;;50.50;28.37;;;;;;;;;;5045578;28;20204;-72
2022/12/10 04:18:33;;;;;;;38.97;26.10;;;;;;;;;;5045340;28;20429;-72
2022/12/10 04:29:11;;;;;;;36.67;27.00;;;;;;;;;;5042330;28;20562;-72
2022/12/10 04:31:36;;;;;;;37.87;26.57;;;;;;;;;;5045759;28;20462;-72
2022/12/10 04:34:01;;;;;;;37.60;26.80;;;;;;;;;;5027362;28;20647;-72
2022/12/10 04:36:27;;;;;;;33.73;25.23;;;;;;;;;;5046700;28;20242;-72
2022/12/10 04:38:54;;;;;;;38.93;28.17;;;;;;;;;;5046089;28;20245;-72
2022/12/10 04:41:22;;;;;;;33.33;24.97;;;;;;;;;;5044923;28;20179;-72
2022/12/10 04:43:47;;;;;;;31.63;25.57;;;;;;;;;;5047651;28;20426;-72
2022/12/10 04:46:13;;;;;;;41.67;26.83;;;;;;;;;;5049975;28;20525;-72
2022/12/10 04:48:38;;;;;;;32.57;24.73;;;;;;;;;;5050307;28;20196;-72
2022/12/10 04:51:04;;;;;;;35.33;26.53;;;;;;;;;;5049327;28;20564;-71
2022/12/10 04:53:29;;;;;;;38.57;26.83;;;;;;;;;;5048802;28;20184;-72
2022/12/10 04:55:54;;;;;;;39.10;27.03;;;;;;;;;;5050215;28;20175;-72
2022/12/10 04:58:19;;;;;;;36.10;27.57;;;;;;;;;;5049196;28;20175;-72
2022/12/10 05:00:45;;;;;;;39.57;26.20;;;;;;;;;;5046923;28;20602;-72
2022/12/10 05:03:13;;;;;;;35.10;25.70;;;;;;;;;;5050304;28;20175;-72
2022/12/10 05:05:38;;;;;;;37.40;26.50;;;;;;;;;;5049454;28;20392;-72
2022/12/10 05:08:04;;;;;;;34.40;26.03;;;;;;;;;;5049250;28;20977;-72
2022/12/10 05:10:29;;;;;;;38.90;27.20;;;;;;;;;;5047578;28;20192;-72
2022/12/10 05:12:55;;;;;;;38.50;28.10;;;;;;;;;;5032989;28;20184;-72
2022/12/10 05:15:21;;;;;;;38.10;27.90;;;;;;;;;;5044942;28;20184;-72
2022/12/10 05:17:46;;;;;;;36.23;26.60;;;;;;;;;;5044631;28;20495;-72
2022/12/10 05:20:14;;;;;;;40.50;28.13;;;;;;;;;;5044212;28;20183;-72
2022/12/10 05:25:26;;;;;;;40.67;28.57;;;;;;;;;;5045379;28;20519;-72
2022/12/10 05:27:51;;;;;;;36.03;26.20;;;;;;;;;;5043398;28;20488;-72
2022/12/10 05:30:16;;;;;;;36.50;27.67;;;;;;;;;;5043900;28;20481;-72
2022/12/10 05:32:42;;;;;;;38.33;28.43;;;;;;;;;;5029946;28;20172;-72
2022/12/10 05:35:07;;;;;;;44.33;28.27;;;;;;;;;;5028972;28;20185;-72
2022/12/10 05:37:32;;;;;;;36.43;26.57;;;;;;;;;;5045067;28;20226;-72
2022/12/10 05:39:58;;;;;;;44.77;29.30;;;;;;;;;;5044204;28;20184;-72
2022/12/10 05:42:23;;;;;;;44.50;29.37;;;;;;;;;;5042709;28;20183;-72
2022/12/10 05:44:48;;;;;;;40.63;28.23;;;;;;;;;;5043037;28;20243;-72
2022/12/10 05:47:13;;;;;;;40.93;28.80;;;;;;;;;;5044145;28;20634;-71
2022/12/10 05:49:39;;;;;;;38.57;28.00;;;;;;;;;;5047166;28;20172;-71
2022/12/10 05:52:04;;;;;;;48.87;29.67;;;;;;;;;;5045797;28;20595;-71
2022/12/10 05:54:29;;;;;;;41.10;28.67;;;;;;;;;;5044774;28;20203;-71
2022/12/10 05:56:54;;;;;;;42.93;28.47;;;;;;;;;;5044724;28;20202;-71
2022/12/10 05:59:20;;;;;;;40.73;28.63;;;;;;;;;;5041059;28;20234;-71
2022/12/10 06:01:45;;;;;;;45.40;29.30;;;;;;;;;;5044683;28;20215;-71
2022/12/10 06:04:11;;;;;;;38.43;29.10;;;;;;;;;;5047866;28;20184;-71
2022/12/10 06:06:40;;;;;;;40.67;29.30;;;;;;;;;;5032266;28;20275;-71
2022/12/10 06:09:06;;;;;;;47.47;31.03;;;;;;;;;;5049629;28;21026;-71
2022/12/10 06:11:32;;;;;;;44.33;29.90;;;;;;;;;;5045135;28;20957;-71
2022/12/10 06:13:57;;;;;;;48.43;31.57;;;;;;;;;;5047848;28;20437;-71
2022/12/10 06:16:23;;;;;;;45.83;30.33;;;;;;;;;;5046415;28;20200;-71
2022/12/10 06:18:49;;;;;;;44.27;30.20;;;;;;;;;;5031741;28;20418;-71
2022/12/10 06:21:18;;;;;;;39.83;27.77;;;;;;;;;;5049102;28;20701;-71
2022/12/10 06:23:43;;;;;;;43.90;29.10;;;;;;;;;;5030238;28;20187;-71
2022/12/10 06:26:13;;;;;;;41.37;28.13;;;;;;;;;;5028496;28;20422;-71
2022/12/10 06:28:38;;;;;;;42.30;28.57;;;;;;;;;;5028709;28;20218;-71
2022/12/10 06:31:04;;;;;;;41.87;28.63;;;;;;;;;;5050321;28;20483;-71
2022/12/10 06:33:29;;;;;;;46.93;31.67;;;;;;;;;;5052061;28;20700;-71
2022/12/10 06:35:55;;;;;;;42.07;29.23;;;;;;;;;;5031953;28;20205;-71
2022/12/10 06:38:23;;;;;;;42.00;28.10;;;;;;;;;;5044755;28;20191;-72
2022/12/10 06:40:48;;;;;;;44.83;29.83;;;;;;;;;;5029841;28;20685;-72
2022/12/10 06:43:13;;;;;;;42.57;30.63;;;;;;;;;;5045281;28;20431;-72
2022/12/10 06:45:39;;;;;;;44.50;30.07;;;;;;;;;;5046245;28;20172;-72
2022/12/10 06:48:05;;;;;;;44.10;30.63;;;;;;;;;;5052075;28;20208;-72
2022/12/10 06:50:30;;;;;;;43.60;29.20;;;;;;;;;;5034421;28;20210;-72
2022/12/10 06:52:55;;;;;;;44.80;30.20;;;;;;;;;;5052434;28;20183;-72
2022/12/10 06:55:21;;;;;;;42.17;29.73;;;;;;;;;;5052089;28;20175;-72
2022/12/10 06:57:46;;;;;;;43.90;30.50;;;;;;;;;;5052560;28;20200;-72
2022/12/10 07:00:12;;;;;;;44.20;30.17;;;;;;;;;;5053811;28;20180;-72
2022/12/10 07:02:37;;;;;;;42.07;28.63;;;;;;;;;;5053585;28;20176;-72
2022/12/10 07:05:02;;;;;;;48.70;32.90;;;;;;;;;;5051293;28;20207;-72
2022/12/10 07:07:31;;;;;;;48.20;30.80;;;;;;;;;;5051396;28;20281;-72
2022/12/10 07:09:56;;;;;;;51.43;31.30;;;;;;;;;;5052054;28;20694;-72
2022/12/10 07:12:21;;;;;;;43.20;28.57;;;;;;;;;;5050543;28;20495;-72
2022/12/10 07:14:47;;;;;;;50.80;30.47;;;;;;;;;;5052250;28;20167;-72
2022/12/10 07:17:12;;;;;;;45.83;30.67;;;;;;;;;;5050419;28;20184;-72
2022/12/10 07:19:37;;;;;;;51.00;30.37;;;;;;;;;;5051928;28;20170;-72
2022/12/10 07:22:02;;;;;;;47.83;30.73;;;;;;;;;;5051872;28;20533;-72
2022/12/10 07:24:28;;;;;;;51.13;32.90;;;;;;;;;;5034315;28;20237;-72
2022/12/10 07:26:53;;;;;;;50.43;31.07;;;;;;;;;;5050889;28;20198;-72
2022/12/10 07:29:20;;;;;;;45.57;29.17;;;;;;;;;;5032263;28;20171;-72
2022/12/10 07:31:45;;;;;;;51.93;34.80;;;;;;;;;;5050672;28;20198;-72
2022/12/10 07:34:11;;;;;;;46.53;31.63;;;;;;;;;;5050806;28;20406;-72
2022/12/10 07:36:36;;;;;;;52.43;32.30;;;;;;;;;;5052013;28;20281;-72
2022/12/10 07:39:06;;;;;;;46.97;31.73;;;;;;;;;;5050376;28;20328;-72
2022/12/10 07:41:31;;;;;;;48.93;31.10;;;;;;;;;;5052328;28;20191;-72
2022/12/10 07:43:56;;;;;;;46.47;31.27;;;;;;;;;;5051332;28;20418;-72
2022/12/10 07:46:23;;;;;;;48.73;32.50;;;;;;;;;;5050496;28;20223;-72
2022/12/10 07:48:49;;;;;;;48.77;31.87;;;;;;;;;;5052771;28;20176;-72
2022/12/10 07:51:18;;;;;;;51.87;31.30;;;;;;;;;;5050671;28;20450;-72
2022/12/10 07:53:43;;;;;;;51.05;36.25;;;;;;;;;;5049534;28;20395;-72
2022/12/10 07:56:09;;;;;;;51.73;34.10;;;;;;;;;;5049192;28;20172;-72
2022/12/10 07:58:34;;;;;;;53.30;33.30;;;;;;;;;;5046537;28;20213;-70
2022/12/10 08:01:05;;;;;;;47.20;32.67;;;;;;;;;;5017039;28;20182;-72
2022/12/10 08:03:31;;;;;;;49.93;31.50;;;;;;;;;;5047166;28;20172;-71
2022/12/10 08:06:03;;;;;;;55.07;31.60;;;;;;;;;;5049760;28;20977;-72
2022/12/10 08:08:28;;;;;;;46.63;31.20;;;;;;;;;;5046512;28;20234;-71
2022/12/10 08:10:59;;;;;;;53.60;30.80;;;;;;;;;;5050629;28;20500;-71
2022/12/10 08:13:24;;;;;;;46.07;30.27;;;;;;;;;;5051399;28;20175;-71
2022/12/10 08:15:49;;;;;;;46.23;30.47;;;;;;;;;;5044616;28;20441;-72
2022/12/10 08:18:14;;;;;;;54.97;31.13;;;;;;;;;;5043646;28;20694;-72
2022/12/10 08:20:39;;;;;;;50.63;33.33;;;;;;;;;;5045139;28;20195;-72
2022/12/10 08:23:05;;;;;;;49.77;32.10;;;;;;;;;;5046646;28;20721;-72
2022/12/10 08:25:30;;;;;;;52.60;30.90;;;;;;;;;;5047404;28;20172;-72
2022/12/10 08:27:57;;;;;;;50.57;30.17;;;;;;;;;;5048542;28;20203;-72
2022/12/10 08:30:22;;;;;;;54.17;30.77;;;;;;;;;;5053035;28;20287;-74
2022/12/10 08:32:48;;;;;;;47.33;28.77;;;;;;;;;;5026345;28;20494;-71
2022/12/10 08:35:13;;;;;;;53.53;31.57;;;;;;;;;;5048167;28;20186;-71
2022/12/10 08:37:40;;;;;;;47.27;29.97;;;;;;;;;;5042108;28;20220;-72
2022/12/10 08:40:06;;;;;;;54.33;32.93;;;;;;;;;;5033489;28;20180;-71
2022/12/10 08:42:32;;;;;;;51.70;32.27;;;;;;;;;;5027442;28;20500;-71
2022/12/10 08:45:01;;;;;;;51.33;31.93;;;;;;;;;;5047802;28;20191;-70
2022/12/10 08:47:26;;;;;;;50.00;30.70;;;;;;;;;;5046633;28;20258;-71
2022/12/10 08:49:52;;;;;;;50.80;31.53;;;;;;;;;;5029046;28;20873;-72
2022/12/10 08:52:17;;;;;;;51.37;33.13;;;;;;;;;;5046828;28;20206;-71
2022/12/10 08:54:45;;;;;;;50.87;31.47;;;;;;;;;;5044584;28;20184;-73
2022/12/10 08:57:12;;;;;;;47.93;31.27;;;;;;;;;;5042130;28;20759;-72
2022/12/10 08:59:37;;;;;;;52.97;33.40;;;;;;;;;;5027584;28;20873;-72
2022/12/10 09:02:03;;;;;;;54.47;34.00;;;;;;;;;;5024004;28;20438;-72
2022/12/10 09:04:31;;;;;;;46.93;32.63;;;;;;;;;;5047392;28;20278;-72
2022/12/10 09:06:56;;;;;;;55.30;33.10;;;;;;;;;;5024293;28;22539;-71
2022/12/10 09:09:21;;;;;;;49.80;32.60;;;;;;;;;;5041328;28;20441;-71
2022/12/10 09:11:46;;;;;;;50.90;31.20;;;;;;;;;;5025224;28;20285;-70
2022/12/10 09:14:12;;;;;;;50.43;32.57;;;;;;;;;;5038291;28;20175;-71
2022/12/10 09:16:47;;;;;;;51.40;32.70;;;;;;;;;;5045063;28;20234;-72
2022/12/10 09:19:15;;;;;;;53.87;33.43;;;;;;;;;;5045625;28;20442;-72
2022/12/10 09:21:42;;;;;;;53.40;32.70;;;;;;;;;;5029154;28;20437;-72
2022/12/10 09:24:09;;;;;;;50.33;33.47;;;;;;;;;;5043929;28;20430;-71
2022/12/10 09:26:34;;;;;;;52.97;37.72;;;;;;;;;;5040278;28;20502;-72
2022/12/10 09:29:00;;;;;;;53.47;36.10;;;;;;;;;;5040240;28;20270;-71
2022/12/10 09:31:25;;;;;;;54.63;33.07;;;;;;;;;;5043074;28;20192;-72
2022/12/10 09:33:53;;;;;;;47.57;32.40;;;;;;;;;;5041058;28;20271;-72
2022/12/10 09:36:19;;;;;;;61.80;34.87;;;;;;;;;;5013148;28;20223;-71
2022/12/10 09:38:45;;;;;;;45.60;31.07;;;;;;;;;;5041306;28;20535;-71
2022/12/10 09:41:18;;;;;;;54.57;34.50;;;;;;;;;;5049930;28;20910;-71
2022/12/10 09:43:45;;;;;;;51.90;33.30;;;;;;;;;;5049268;28;20172;-71
2022/12/10 09:46:18;;;;;;;49.97;32.77;;;;;;;;;;5029350;28;20486;-71
2022/12/10 09:48:54;;;;;;;51.27;32.37;;;;;;;;;;5045586;28;20609;-71
2022/12/10 09:51:24;;;;;;;51.67;31.30;;;;;;;;;;5048046;28;20544;-71
2022/12/10 09:53:57;;;;;;;50.57;33.50;;;;;;;;;;5050908;28;20824;-70
2022/12/10 09:56:24;;;;;;;60.33;37.47;;;;;;;;;;5041845;28;20529;-70
2022/12/10 09:58:50;;;;;;;49.83;32.03;;;;;;;;;;5045575;28;20495;-70
2022/12/10 10:01:19;;;;;;;49.97;32.07;;;;;;;;;;5026544;28;20446;-71
2022/12/10 10:03:44;;;;;;;56.03;32.33;;;;;;;;;;5045413;28;21122;-71
2022/12/10 10:06:13;;;;;;;48.87;32.07;;;;;;;;;;5026464;28;21211;-71
2022/12/10 10:08:42;;;;;;;53.00;32.43;;;;;;;;;;5039307;28;20191;-71
2022/12/10 10:11:18;;;;;;;47.87;31.23;;;;;;;;;;5035495;28;20508;-72
2022/12/10 10:13:58;;;;;;;51.13;31.20;;;;;;;;;;5046614;28;21060;-72
2022/12/10 10:16:30;;;;;;;47.17;35.92;;;;;;;;;;5043938;28;20419;-72
2022/12/10 10:19:09;;;;;;;54.03;34.20;;;;;;;;;;5044103;28;20430;-72
2022/12/10 10:21:36;;;;;;;49.70;33.33;;;;;;;;;;5046661;28;20486;-72
2022/12/10 10:24:02;;;;;;;49.43;31.10;;;;;;;;;;5048212;28;20435;-72
2022/12/10 10:26:28;;;;;;;49.60;32.77;;;;;;;;;;5047309;28;20446;-72
2022/12/10 10:28:56;;;;;;;52.30;31.13;;;;;;;;;;5048148;28;20422;-72
2022/12/10 10:31:26;;;;;;;47.57;31.80;;;;;;;;;;5048647;28;20195;-72
2022/12/10 10:33:57;;;;;;;55.10;33.07;;;;;;;;;;5050363;28;20414;-72
2022/12/10 10:36:24;;;;;;;50.57;30.97;;;;;;;;;;5027129;28;20454;-71
2022/12/10 10:38:49;;;;;;;50.50;34.57;;;;;;;;;;5048285;28;20420;-72
2022/12/10 10:41:15;;;;;;;48.50;32.20;;;;;;;;;;5045185;28;20430;-71
2022/12/10 10:43:41;;;;;;;52.63;31.87;;;;;;;;;;5044179;28;20214;-71
2022/12/10 10:46:11;;;;;;;58.53;34.87;;;;;;;;;;5046119;28;20683;-71
2022/12/10 10:48:37;;;;;;;53.60;32.60;;;;;;;;;;5044981;28;20437;-71
2022/12/10 10:51:07;;;;;;;53.90;32.23;;;;;;;;;;5044998;28;20469;-71
2022/12/10 10:53:38;;;;;;;60.17;35.10;;;;;;;;;;5027608;28;20187;-71
2022/12/10 10:56:06;;;;;;;52.40;32.20;;;;;;;;;;5045070;28;20415;-71
2022/12/10 10:58:32;;;;;;;55.00;33.67;;;;;;;;;;5045567;28;20774;-71
2022/12/10 11:01:07;;;;;;;54.10;33.73;;;;;;;;;;5028471;28;20445;-71
2022/12/10 11:03:34;;;;;;;52.97;33.60;;;;;;;;;;5049146;28;20178;-71
2022/12/10 11:05:59;;;;;;;55.90;33.30;;;;;;;;;;5051347;28;20414;-71
2022/12/10 11:08:27;;;;;;;53.30;33.33;;;;;;;;;;5048867;28;20911;-71
2022/12/10 11:11:03;;;;;;;52.10;32.00;;;;;;;;;;5050613;28;20457;-71
2022/12/10 11:13:38;;;;;;;50.37;31.70;;;;;;;;;;5052166;28;20405;-71
2022/12/10 11:16:10;;;;;;;61.33;32.23;;;;;;;;;;5047057;28;20490;-71
2022/12/10 11:18:36;;;;;;;52.10;33.90;;;;;;;;;;5042169;28;20441;-70
2022/12/10 11:21:04;;;;;;;58.90;34.23;;;;;;;;;;5049372;28;20480;-70
2022/12/10 11:23:31;;;;;;;55.47;33.83;;;;;;;;;;5022032;28;20513;-71
2022/12/10 11:25:59;;;;;;;58.73;34.17;;;;;;;;;;5046440;28;20594;-72
2022/12/10 11:28:34;;;;;;;51.93;33.70;;;;;;;;;;5049033;28;20430;-72
2022/12/10 11:31:17;;;;;;;58.80;35.10;;;;;;;;;;5048738;28;20507;-72
2022/12/10 11:33:46;;;;;;;51.43;33.10;;;;;;;;;;5031951;28;20926;-72
2022/12/10 11:36:21;;;;;;;54.43;32.70;;;;;;;;;;5048005;28;20468;-73
2022/12/10 11:38:46;;;;;;;53.43;33.33;;;;;;;;;;5050024;28;20417;-73
2022/12/10 11:41:23;;;;;;;48.63;31.87;;;;;;;;;;5051103;28;20402;-74
2022/12/10 11:43:55;;;;;;;52.50;32.63;;;;;;;;;;5048756;28;20180;-74
2022/12/10 11:46:29;;;;;;;56.97;33.20;;;;;;;;;;5029692;28;20507;-74
2022/12/10 11:48:57;;;;;;;51.93;33.07;;;;;;;;;;5050511;28;20491;-74
2022/12/10 11:51:23;;;;;;;50.03;33.07;;;;;;;;;;5046005;28;20460;-74
2022/12/10 11:54:00;;;;;;;53.03;33.80;;;;;;;;;;5049993;28;20414;-74
2022/12/10 11:56:31;;;;;;;51.30;32.60;;;;;;;;;;5032386;28;20203;-74
2022/12/10 11:58:56;;;;;;;54.43;34.17;;;;;;;;;;5050011;28;20417;-74
2022/12/10 12:01:27;;;;;;;54.50;34.27;;;;;;;;;;5047016;28;20509;-74
2022/12/10 12:03:52;;;;;;;49.10;33.40;;;;;;;;;;5046385;28;20558;-74
2022/12/10 12:06:17;;;;;;;49.00;32.67;;;;;;;;;;5029183;28;20580;-74
2022/12/10 12:08:51;;;;;;;52.80;32.67;;;;;;;;;;5045989;28;20187;-74
2022/12/10 12:11:16;;;;;;;52.30;33.57;;;;;;;;;;5030197;28;20347;-72
2022/12/10 12:13:47;;;;;;;62.63;37.90;;;;;;;;;;5038732;28;21687;-73
2022/12/10 12:16:18;;;;;;;51.40;32.83;;;;;;;;;;5029672;28;20242;-73
2022/12/10 12:18:46;;;;;;;55.43;36.17;;;;;;;;;;5047762;28;20420;-73
2022/12/10 12:21:13;;;;;;;51.83;33.43;;;;;;;;;;5049113;28;20501;-73
2022/12/10 12:23:47;;;;;;;58.17;35.53;;;;;;;;;;5045433;28;20501;-73
2022/12/10 12:26:32;;;;;;;52.77;33.80;;;;;;;;;;5028181;28;20445;-73
2022/12/10 12:29:32;;;;;;;58.57;34.40;;;;;;;;;;5049459;28;20995;-72
2022/12/10 12:32:00;;;;;;;54.50;34.33;;;;;;;;;;4969254;28;20484;-72
2022/12/10 12:34:36;;;;;;;56.77;34.10;;;;;;;;;;5023631;28;21154;-72
2022/12/10 12:37:01;;;;;;;52.80;33.87;;;;;;;;;;5043460;28;20457;-73
2022/12/10 12:39:28;;;;;;;57.43;32.63;;;;;;;;;;5043004;28;20438;-73
2022/12/10 12:41:57;;;;;;;57.23;34.53;;;;;;;;;;5044213;28;20179;-72
2022/12/10 12:44:43;;;;;;;54.13;34.13;;;;;;;;;;5043772;28;20439;-72
2022/12/10 12:47:27;;;;;;;58.13;35.93;;;;;;;;;;5005250;28;20467;-72
2022/12/10 12:49:53;;;;;;;57.27;34.80;;;;;;;;;;5047325;28;20430;-73
2022/12/10 12:52:37;;;;;;;57.10;36.23;;;;;;;;;;5041027;28;20942;-72
2022/12/10 12:55:22;;;;;;;55.47;34.20;;;;;;;;;;5042924;28;20433;-73
2022/12/10 12:57:59;;;;;;;56.63;35.07;;;;;;;;;;5008506;28;20446;-72
2022/12/10 13:00:28;;;;;;;53.60;35.00;;;;;;;;;;5031911;28;20437;-72
2022/12/10 13:03:12;;;;;;;52.80;34.60;;;;;;;;;;5035952;28;20957;-72
2022/12/10 13:05:38;;;;;;;54.97;34.77;;;;;;;;;;5041008;28;20442;-73
2022/12/10 13:08:15;;;;;;;52.87;34.77;;;;;;;;;;5041979;28;20497;-72
2022/12/10 13:10:56;;;;;;;52.00;34.10;;;;;;;;;;5038185;28;20465;-73
2022/12/10 13:13:23;;;;;;;62.20;37.83;;;;;;;;;;5040628;28;20437;-72
2022/12/10 13:15:49;;;;;;;52.93;33.83;;;;;;;;;;5038672;28;20484;-73
2022/12/10 13:18:15;;;;;;;59.03;36.73;;;;;;;;;;5041294;28;20454;-72
2022/12/10 13:20:44;;;;;;;54.60;34.63;;;;;;;;;;5023759;28;20183;-72
2022/12/10 13:23:20;;;;;;;50.53;33.03;;;;;;;;;;5014725;28;20932;-72
2022/12/10 13:25:45;;;;;;;52.60;35.37;;;;;;;;;;5008470;28;20442;-72
2022/12/10 13:28:29;;;;;;;62.30;38.30;;;;;;;;;;5011627;28;20455;-72
2022/12/10 13:31:15;;;;;;;59.40;35.23;;;;;;;;;;5018978;28;20211;-73
2022/12/10 13:33:46;;;;;;;56.70;37.07;;;;;;;;;;4995868;28;20431;-72
2022/12/10 13:36:12;;;;;;;54.53;34.93;;;;;;;;;;5021319;28;20483;-72
2022/12/10 13:38:57;;;;;;;50.87;34.10;;;;;;;;;;5001558;28;20462;-73
2022/12/10 13:44:26;;;;;;;58.23;35.63;;;;;;;;;;5022571;28;20524;-72
2022/12/10 13:46:57;;;;;;;64.40;37.60;;;;;;;;;;5019958;28;20844;-72
2022/12/10 13:49:29;;;;;;;57.07;34.83;;;;;;;;;;5024566;28;20439;-73
2022/12/10 13:51:58;;;;;;;64.77;38.30;;;;;;;;;;5007267;28;20478;-72
2022/12/10 13:54:29;;;;;;;59.13;36.73;;;;;;;;;;5021023;28;20447;-73
2022/12/10 13:56:57;;;;;;;59.27;37.70;;;;;;;;;;5021431;28;20439;-73
2022/12/10 13:59:23;;;;;;;57.27;36.03;;;;;;;;;;5020805;28;20917;-72
2022/12/10 14:02:00;;;;;;;57.10;35.30;;;;;;;;;;5021161;28;20435;-73
2022/12/10 14:04:44;;;;;;;62.33;37.23;;;;;;;;;;5026284;28;20181;-73
2022/12/10 14:07:10;;;;;;;57.77;36.57;;;;;;;;;;5023607;28;20458;-72
2022/12/10 14:09:40;;;;;;;59.67;35.60;;;;;;;;;;5024313;28;20544;-72
2022/12/10 14:12:08;;;;;;;70.13;39.87;;;;;;;;;;5026063;28;20979;-72
2022/12/10 14:14:42;;;;;;;56.83;37.10;;;;;;;;;;5025361;28;20426;-72
2022/12/10 14:17:21;;;;;;;64.83;39.07;;;;;;;;;;5022233;28;20451;-73
2022/12/10 14:19:54;;;;;;;60.77;36.80;;;;;;;;;;5022481;28;20485;-73
2022/12/10 14:22:30;;;;;;;58.30;37.33;;;;;;;;;;5024550;28;20492;-73
2022/12/10 14:24:58;;;;;;;59.60;37.83;;;;;;;;;;5026368;28;20533;-75
2022/12/10 14:27:24;;;;;;;58.23;37.07;;;;;;;;;;5028538;28;21001;-73
2022/12/10 14:29:51;;;;;;;60.23;38.23;;;;;;;;;;5031461;28;20419;-73
2022/12/10 14:32:18;;;;;;;67.50;41.00;;;;;;;;;;5032556;28;20431;-72
2022/12/10 14:34:48;;;;;;;70.67;40.97;;;;;;;;;;5031777;28;20443;-71
2022/12/10 14:37:13;;;;;;;58.67;36.90;;;;;;;;;;5020963;28;20670;-71
2022/12/10 14:39:39;;;;;;;57.93;35.97;;;;;;;;;;5026186;28;21037;-72
2022/12/10 14:42:05;;;;;;;56.47;34.47;;;;;;;;;;5026604;28;20284;-71